SCAR METAR and TAF weather

Enter ICAO airport designator
Station Type Date Time Source
SCAR METAR 2019/04/24 16:00 UTC NOAA

SCAR 241600Z 22006KT 180V250 CAVOK 22/15 Q1015


Station Type Date Time Source
SCAR Decoded METAR 2019/04/24 16:00 UTC NOAA

Arica, Chile (SCAR) 18-20S 070-20W 58M
Apr 24, 2019 - 12:00 PM EDT / 2019.04.24 1600 UTC
Wind: from the SW (220 degrees) at 7 MPH (6 KT) (direction variable):0
Visibility: greater than 7 mile(s):0
Temperature: 71 F (22 C)
Dew Point: 59 F (15 C)
Relative Humidity: 64%
Pressure (altimeter): 29.97 in. Hg (1015 hPa)
ob: SCAR 241600Z 22006KT 180V250 CAVOK 22/15 Q1015
cycle: 16

Station Type Date Time Source
SCAR TAF 2019/04/24 12:03 UTC NOAA

TAF TAF SCAR 241051Z 2412/2512 09004KT CAVOK TX22/2418Z TN17/2506Z
BECMG 2415/2417 22010KT
BECMG 2422/2500 18004KT
BECMG 2503/2505 09004KT

Example: see airport list